createdAt,value
2022-08-12T00:01:05.377Z,1.93
2022-08-12T00:03:51.605Z,1.87
2022-08-12T00:06:39.150Z,2.10
2022-08-12T00:09:26.520Z,2.00
2022-08-12T00:12:12.513Z,2.23
2022-08-12T00:15:02.624Z,1.90
2022-08-12T00:17:49.631Z,2.23
2022-08-12T00:20:35.666Z,1.97
2022-08-12T00:23:21.746Z,2.00
2022-08-12T00:26:22.882Z,1.73
2022-08-12T00:29:10.500Z,2.00
2022-08-12T00:32:00.034Z,2.13
2022-08-12T00:34:47.758Z,2.30
2022-08-12T00:37:35.190Z,2.60
2022-08-12T00:40:21.104Z,2.30
2022-08-12T00:42:49.437Z,2.27
2022-08-12T00:45:17.713Z,2.53
2022-08-12T00:47:48.322Z,2.40
2022-08-12T00:50:19.981Z,2.03
2022-08-12T00:52:50.369Z,2.50
2022-08-12T00:55:20.603Z,2.17
2022-08-12T00:57:50.643Z,2.10
2022-08-12T01:00:23.286Z,2.37
2022-08-12T01:02:58.685Z,2.10
2022-08-12T01:05:45.757Z,2.33
2022-08-12T01:08:32.063Z,2.50
2022-08-12T01:11:18.589Z,3.50
2022-08-12T01:13:49.470Z,2.30
2022-08-12T01:16:23.336Z,1.97
2022-08-12T01:18:55.938Z,2.30
2022-08-12T01:21:45.105Z,2.50
2022-08-12T01:24:34.402Z,2.77
2022-08-12T01:27:07.910Z,2.10
2022-08-12T01:29:45.027Z,2.17
2022-08-12T01:32:15.707Z,1.80
2022-08-12T01:34:51.312Z,2.30
2022-08-12T01:37:23.573Z,2.37
2022-08-12T01:40:34.807Z,2.10
2022-08-12T01:42:48.090Z,2.23
2022-08-12T01:45:23.982Z,2.20
2022-08-12T01:48:05.376Z,2.63
2022-08-12T01:50:46.299Z,2.27
2022-08-12T01:53:16.443Z,2.30
2022-08-12T01:55:48.420Z,2.50
2022-08-12T01:58:23.866Z,2.70
2022-08-12T02:00:59.366Z,2.57
2022-08-12T02:04:12.992Z,2.87
2022-08-12T02:07:07.431Z,2.60
2022-08-12T02:10:50.004Z,2.20
2022-08-12T02:13:16.061Z,2.50
2022-08-12T02:16:10.069Z,2.47
2022-08-12T02:18:48.851Z,2.30
2022-08-12T02:21:26.883Z,2.70
2022-08-12T02:23:56.198Z,2.50
2022-08-12T02:26:30.488Z,2.90
2022-08-12T02:29:01.271Z,2.77
2022-08-12T02:31:31.547Z,2.90
2022-08-12T02:33:59.942Z,2.40
2022-08-12T02:36:29.337Z,2.60
2022-08-12T02:39:03.361Z,3.30
2022-08-12T02:41:33.658Z,2.70
2022-08-12T02:44:09.479Z,2.90
2022-08-12T02:46:38.811Z,2.47
2022-08-12T02:49:12.602Z,2.87
2022-08-12T02:51:44.319Z,2.60
2022-08-12T02:54:13.674Z,2.40
2022-08-12T02:56:50.414Z,2.87
2022-08-12T02:59:24.127Z,2.40
2022-08-12T03:01:55.275Z,2.90
2022-08-12T03:04:27.847Z,2.70
2022-08-12T03:07:05.494Z,3.13
2022-08-12T03:10:04.320Z,2.50
2022-08-12T03:12:33.760Z,3.00
2022-08-12T03:15:10.351Z,2.50
2022-08-12T03:17:48.010Z,2.67
2022-08-12T03:20:41.103Z,2.67
2022-08-12T03:23:17.546Z,2.70
2022-08-12T03:25:59.180Z,2.40
2022-08-12T03:28:47.106Z,3.27
2022-08-12T03:31:17.647Z,2.67
2022-08-12T03:34:01.778Z,2.70
2022-08-12T03:36:33.821Z,2.43
2022-08-12T03:39:36.281Z,2.70
2022-08-12T03:42:18.556Z,2.67
2022-08-12T03:45:12.679Z,2.83
2022-08-12T03:48:06.334Z,2.90
2022-08-12T03:50:52.205Z,3.70
2022-08-12T03:53:44.294Z,2.97
2022-08-12T03:56:30.314Z,2.57
2022-08-12T03:59:18.785Z,2.73
2022-08-12T04:01:52.615Z,2.37
2022-08-12T04:04:24.130Z,2.53
2022-08-12T04:06:52.834Z,2.77
2022-08-12T04:09:23.541Z,2.73
2022-08-12T04:12:09.897Z,2.30
2022-08-12T04:14:38.793Z,2.23
2022-08-12T04:17:07.167Z,2.30
2022-08-12T04:19:38.650Z,2.33
2022-08-12T04:22:06.937Z,3.40
2022-08-12T04:24:38.077Z,2.20
2022-08-12T04:27:11.738Z,2.30
2022-08-12T04:30:17.097Z,2.23
2022-08-12T04:32:29.698Z,1.90
2022-08-12T04:34:59.317Z,2.10
2022-08-12T04:37:27.636Z,1.80
2022-08-12T04:39:56.493Z,2.20
2022-08-12T04:42:25.514Z,1.97
2022-08-12T04:44:53.774Z,2.00
2022-08-12T04:47:24.026Z,2.57
2022-08-12T04:49:52.193Z,2.00
2022-08-12T04:52:21.866Z,2.13
2022-08-12T04:54:50.448Z,2.37
2022-08-12T04:57:18.972Z,2.07
2022-08-12T04:59:49.024Z,2.10
2022-08-12T05:02:21.569Z,2.30
2022-08-12T05:04:52.413Z,1.77
2022-08-12T05:07:24.381Z,2.20
2022-08-12T05:09:59.238Z,1.80
2022-08-12T05:12:36.999Z,2.20
2022-08-12T05:15:19.242Z,2.00
2022-08-12T05:17:59.886Z,2.30
2022-08-12T05:20:30.885Z,2.20
2022-08-12T05:23:13.429Z,2.13
2022-08-12T05:25:43.241Z,1.80
2022-08-12T05:28:13.670Z,2.10
2022-08-12T05:30:42.734Z,2.20
2022-08-12T05:33:12.797Z,2.27
2022-08-12T05:35:43.462Z,1.87
2022-08-12T05:38:33.130Z,2.10
2022-08-12T05:41:02.502Z,2.00
2022-08-12T05:43:31.050Z,2.03
2022-08-12T05:45:59.269Z,1.90
2022-08-12T05:48:28.772Z,1.80
2022-08-12T05:50:57.882Z,1.90
2022-08-12T05:53:27.746Z,1.80
2022-08-12T05:55:56.318Z,1.73
2022-08-12T05:58:24.882Z,1.87
2022-08-12T06:00:53.145Z,2.07
2022-08-12T06:03:22.059Z,2.10
2022-08-12T06:05:55.663Z,1.90
2022-08-12T06:08:26.127Z,1.70
2022-08-12T06:10:57.218Z,2.17
2022-08-12T06:13:53.227Z,1.90
2022-08-12T06:16:17.914Z,1.87
2022-08-12T06:18:46.591Z,2.53
2022-08-12T06:21:16.999Z,2.00
2022-08-12T06:23:46.738Z,1.87
2022-08-12T06:26:19.122Z,1.83
2022-08-12T06:28:50.953Z,2.07
2022-08-12T06:31:26.129Z,1.70
2022-08-12T06:34:52.855Z,1.73
2022-08-12T06:36:44.933Z,1.80
2022-08-12T06:39:15.002Z,1.83
2022-08-12T06:42:31.856Z,1.83
2022-08-12T06:44:50.857Z,2.33
2022-08-12T06:47:19.786Z,1.73
2022-08-12T06:49:50.207Z,1.70
2022-08-12T06:52:25.175Z,2.07
2022-08-12T06:54:55.371Z,2.10
2022-08-12T06:57:57.121Z,1.80
2022-08-12T07:00:21.978Z,1.87
2022-08-12T07:02:58.195Z,1.77
2022-08-12T07:05:27.224Z,1.60
2022-08-12T07:08:11.892Z,2.07
2022-08-12T07:10:45.363Z,1.73
2022-08-12T07:13:15.138Z,1.70
2022-08-12T07:15:43.946Z,1.70
2022-08-12T07:18:16.836Z,1.60
2022-08-12T07:20:52.697Z,1.93
2022-08-12T07:23:21.805Z,1.80
2022-08-12T07:25:50.140Z,1.70
2022-08-12T07:28:23.587Z,2.13
2022-08-12T07:30:53.767Z,1.90
2022-08-12T07:33:25.178Z,1.73
2022-08-12T07:35:54.455Z,1.80
2022-08-12T07:38:29.192Z,1.50
2022-08-12T07:41:03.202Z,1.65
2022-08-12T07:43:34.117Z,1.60
2022-08-12T07:46:06.730Z,1.55
2022-08-12T07:48:40.792Z,1.33
2022-08-12T07:51:09.910Z,1.45
2022-08-12T07:53:59.950Z,1.48
2022-08-12T07:56:27.769Z,1.80
2022-08-12T07:58:59.516Z,1.55
2022-08-12T08:01:28.397Z,1.45
2022-08-12T08:04:18.115Z,1.65
2022-08-12T08:06:48.597Z,1.60
2022-08-12T08:09:19.229Z,1.38
2022-08-12T08:12:04.910Z,1.45
2022-08-12T08:14:34.771Z,1.75
2022-08-12T08:17:06.879Z,1.70
2022-08-12T08:20:02.069Z,1.70
2022-08-12T08:22:33.429Z,1.35
2022-08-12T08:25:34.241Z,1.48
2022-08-12T08:28:02.934Z,1.65
2022-08-12T08:30:33.760Z,1.40
2022-08-12T08:33:01.979Z,1.38
2022-08-12T08:35:46.579Z,1.63
2022-08-12T08:38:30.757Z,1.50
2022-08-12T08:42:15.210Z,1.48
2022-08-12T08:44:07.010Z,1.45
2022-08-12T08:46:38.364Z,1.42
2022-08-12T08:49:07.271Z,1.65
2022-08-12T08:51:36.521Z,1.60
2022-08-12T08:54:05.330Z,1.50
2022-08-12T08:56:34.279Z,1.55
2022-08-12T08:59:02.550Z,1.33
2022-08-12T09:01:37.721Z,1.30
2022-08-12T09:05:08.740Z,1.75
2022-08-12T09:06:59.763Z,1.30
2022-08-12T09:09:34.148Z,1.60
2022-08-12T09:12:42.397Z,1.65
2022-08-12T09:15:19.032Z,1.30
2022-08-12T09:20:50.723Z,1.40
2022-08-12T09:23:59.100Z,1.50
2022-08-12T09:26:09.835Z,1.50
2022-08-12T09:28:41.580Z,1.45
2022-08-12T09:31:54.164Z,1.67
2022-08-12T09:34:27.805Z,1.65
2022-08-12T09:37:00.676Z,1.40
2022-08-12T09:40:06.323Z,1.42
2022-08-12T09:42:44.018Z,1.33
2022-08-12T09:45:24.565Z,1.58
2022-08-12T09:48:20.118Z,1.58
2022-08-12T09:50:55.669Z,1.50
2022-08-12T09:53:36.229Z,1.50
2022-08-12T09:56:59.309Z,1.60
2022-08-12T09:59:03.003Z,1.42
2022-08-12T10:01:34.589Z,1.50
2022-08-12T10:04:09.686Z,1.77
2022-08-12T10:06:54.097Z,1.35
2022-08-12T10:09:28.856Z,1.67
2022-08-12T10:12:33.355Z,1.60
2022-08-12T10:15:02.128Z,1.70
2022-08-12T10:17:30.757Z,1.63
2022-08-12T10:19:59.736Z,1.50
2022-08-12T10:22:37.223Z,1.80
2022-08-12T10:26:33.823Z,1.23
2022-08-12T10:28:40.605Z,1.52
2022-08-12T10:31:16.655Z,1.40
2022-08-12T10:34:05.125Z,1.42
2022-08-12T10:36:40.677Z,1.30
2022-08-12T10:40:00.759Z,1.67
2022-08-12T10:42:46.019Z,1.20
2022-08-12T10:45:14.303Z,1.48
2022-08-12T10:48:19.810Z,1.55
2022-08-12T10:50:58.533Z,1.40
2022-08-12T10:53:45.665Z,1.55
2022-08-12T10:56:16.147Z,1.48
2022-08-12T10:58:47.755Z,1.40
2022-08-12T11:01:49.361Z,1.58
2022-08-12T11:04:25.126Z,1.45
2022-08-12T11:07:08.264Z,1.30
2022-08-12T11:10:00.997Z,1.30
2022-08-12T11:12:56.388Z,1.30
2022-08-12T11:15:33.587Z,1.48
2022-08-12T11:18:18.280Z,1.58
2022-08-12T11:20:48.859Z,1.40
2022-08-12T11:23:25.018Z,1.55
2022-08-12T11:26:06.969Z,1.40
2022-08-12T11:28:38.291Z,1.45
2022-08-12T11:31:14.070Z,1.50
2022-08-12T11:34:04.239Z,1.60
2022-08-12T11:36:31.715Z,1.75
2022-08-12T11:39:04.284Z,1.38
2022-08-12T11:41:33.736Z,1.70
2022-08-12T11:44:36.320Z,1.60
2022-08-12T11:46:54.827Z,1.40
2022-08-12T11:49:31.081Z,1.40
2022-08-12T11:52:02.021Z,1.88
2022-08-12T11:54:30.738Z,1.55
2022-08-12T11:57:02.095Z,1.45
2022-08-12T12:02:21.816Z,1.55
2022-08-12T12:04:52.208Z,1.55
2022-08-12T12:07:33.980Z,1.60
2022-08-12T12:10:12.887Z,1.40
2022-08-12T12:12:41.432Z,1.65
2022-08-12T12:15:12.431Z,1.65
2022-08-12T12:17:43.962Z,1.60
2022-08-12T12:20:13.988Z,1.70
2022-08-12T12:22:45.218Z,1.52
2022-08-12T12:25:14.104Z,1.75
2022-08-12T12:28:04.038Z,1.67
2022-08-12T12:30:33.965Z,1.70
2022-08-12T12:33:04.900Z,1.70
2022-08-12T12:36:17.589Z,1.60
2022-08-12T12:38:25.144Z,1.70
2022-08-12T12:40:54.832Z,1.50
2022-08-12T12:43:28.974Z,1.52
2022-08-12T12:46:11.520Z,1.60
2022-08-12T12:48:44.464Z,1.92
2022-08-12T12:51:48.465Z,1.50
2022-08-12T12:54:10.062Z,1.73
2022-08-12T12:56:42.516Z,1.50
2022-08-12T12:59:55.846Z,1.60
2022-08-12T13:02:07.707Z,1.25
2022-08-12T13:04:38.671Z,1.58
2022-08-12T13:07:08.052Z,1.77
2022-08-12T13:09:36.927Z,1.50
2022-08-12T13:12:09.190Z,1.88
2022-08-12T13:14:39.933Z,1.75
2022-08-12T13:17:14.682Z,1.65
2022-08-12T13:19:46.620Z,2.33
2022-08-12T13:22:20.666Z,1.65
2022-08-12T13:24:56.135Z,1.60
2022-08-12T13:27:35.812Z,1.55
2022-08-12T13:30:06.839Z,1.73
2022-08-12T13:32:35.428Z,1.88
2022-08-12T13:35:20.217Z,1.65
2022-08-12T13:37:56.742Z,2.13
2022-08-12T13:40:27.307Z,1.65
2022-08-12T13:42:58.235Z,1.80
2022-08-12T13:45:27.137Z,1.83
2022-08-12T13:48:00.042Z,1.60
2022-08-12T13:50:32.981Z,1.75
2022-08-12T13:53:16.685Z,1.60
2022-08-12T13:56:01.329Z,1.95
2022-08-12T13:58:34.674Z,1.90
2022-08-12T14:01:06.476Z,1.92
2022-08-12T14:03:50.645Z,1.45
2022-08-12T14:06:30.218Z,1.60
2022-08-12T14:08:59.639Z,1.80
2022-08-12T14:11:32.211Z,1.52
2022-08-12T14:14:05.699Z,1.40
2022-08-12T14:16:49.301Z,1.70
2022-08-12T14:19:24.994Z,1.55
2022-08-12T14:22:00.582Z,1.98
2022-08-12T14:24:35.802Z,1.73
2022-08-12T14:27:09.046Z,1.63
2022-08-12T14:30:04.483Z,1.98
2022-08-12T14:32:35.316Z,1.75
2022-08-12T14:35:09.339Z,1.60
2022-08-12T14:37:57.864Z,1.85
2022-08-12T14:40:28.694Z,1.70
2022-08-12T14:42:58.804Z,1.48
2022-08-12T14:45:44.895Z,1.23
2022-08-12T14:48:23.940Z,1.20
2022-08-12T14:51:03.088Z,1.10
2022-08-12T14:55:36.111Z,1.20
2022-08-12T14:57:05.817Z,1.50
2022-08-12T14:59:57.025Z,1.50
2022-08-12T15:02:29.590Z,1.80
2022-08-12T15:05:03.663Z,1.60
2022-08-12T15:07:33.145Z,1.17
2022-08-12T15:10:14.589Z,1.48
2022-08-12T15:12:54.512Z,1.50
2022-08-12T15:15:23.184Z,1.35
2022-08-12T15:17:59.332Z,1.30
2022-08-12T15:20:37.346Z,1.67
2022-08-12T15:23:17.959Z,1.30
2022-08-12T15:26:03.007Z,1.33
2022-08-12T15:28:34.251Z,1.30
2022-08-12T15:31:21.456Z,1.60
2022-08-12T15:33:52.645Z,1.45
2022-08-12T15:36:36.492Z,1.40
2022-08-12T15:39:16.789Z,1.35
2022-08-12T15:41:50.269Z,1.20
2022-08-12T15:44:42.215Z,1.13
2022-08-12T15:47:09.560Z,1.67
2022-08-12T15:49:54.890Z,1.30
2022-08-12T15:52:29.833Z,1.60
2022-08-12T15:55:06.023Z,1.63
2022-08-12T15:57:50.395Z,1.00
2022-08-12T16:00:32.770Z,1.42
2022-08-12T16:03:05.485Z,0.98
2022-08-12T16:06:12.229Z,1.20
2022-08-12T16:08:26.997Z,1.10
2022-08-12T16:10:56.448Z,1.20
2022-08-12T16:13:34.278Z,1.20
2022-08-12T16:16:12.454Z,1.55
2022-08-12T16:19:02.035Z,1.48
2022-08-12T16:21:51.818Z,1.02
2022-08-12T16:24:21.941Z,1.48
2022-08-12T16:26:51.022Z,1.20
2022-08-12T16:29:38.655Z,2.05
2022-08-12T16:32:23.937Z,2.40
2022-08-12T16:34:56.041Z,2.88
2022-08-12T16:37:32.427Z,2.83
2022-08-12T16:40:14.984Z,3.58
2022-08-12T16:42:54.118Z,2.97
2022-08-12T16:46:05.482Z,3.15
2022-08-12T16:48:34.900Z,3.40
2022-08-12T16:51:09.290Z,3.22
2022-08-12T16:53:44.330Z,3.00
2022-08-12T16:56:15.500Z,4.15
2022-08-12T16:58:44.865Z,3.33
2022-08-12T17:01:15.638Z,3.45
2022-08-12T17:03:51.902Z,3.75
2022-08-12T17:06:27.548Z,3.60
2022-08-12T17:09:08.707Z,3.90
2022-08-12T17:11:49.345Z,4.03
2022-08-12T17:14:23.205Z,3.72
2022-08-12T17:16:55.597Z,3.72
2022-08-12T17:20:29.333Z,3.88
2022-08-12T17:22:16.714Z,3.78
2022-08-12T17:24:54.643Z,3.70
2022-08-12T17:27:24.789Z,3.85
2022-08-12T17:30:03.252Z,3.45
2022-08-12T17:32:36.011Z,3.20
2022-08-12T17:35:29.842Z,3.00
2022-08-12T17:38:06.409Z,3.00
2022-08-12T17:40:37.232Z,2.92
2022-08-12T17:43:51.876Z,2.90
2022-08-12T17:45:59.800Z,2.85
2022-08-12T17:48:34.275Z,3.33
2022-08-12T17:51:06.919Z,3.10
2022-08-12T17:53:43.548Z,3.38
2022-08-12T17:56:31.729Z,3.80
2022-08-12T17:59:01.457Z,3.30
2022-08-12T18:01:34.820Z,3.67
2022-08-12T18:04:21.432Z,3.95
2022-08-12T18:06:51.896Z,3.58
2022-08-12T18:09:21.626Z,3.22
2022-08-12T18:12:11.942Z,3.20
2022-08-12T18:14:41.302Z,3.60
2022-08-12T18:17:11.443Z,3.38
2022-08-12T18:20:06.557Z,3.10
2022-08-12T18:22:31.921Z,2.70
2022-08-12T18:25:03.807Z,3.30
2022-08-12T18:27:44.748Z,2.97
2022-08-12T18:30:28.826Z,3.40
2022-08-12T18:33:03.853Z,2.73
2022-08-12T18:35:47.978Z,2.97
2022-08-12T18:38:24.816Z,2.70
2022-08-12T18:41:21.117Z,2.80
2022-08-12T18:44:00.246Z,3.20
2022-08-12T18:46:47.355Z,2.40
2022-08-12T18:49:20.849Z,2.90
2022-08-12T18:51:54.726Z,2.83
2022-08-12T18:54:26.019Z,2.63
2022-08-12T18:56:59.382Z,2.40
2022-08-12T19:00:02.193Z,2.90
2022-08-12T19:02:22.197Z,3.10
2022-08-12T19:04:53.803Z,3.00
2022-08-12T19:07:29.757Z,2.50
2022-08-12T19:10:16.664Z,2.73
2022-08-12T19:13:03.994Z,2.70
2022-08-12T19:15:43.100Z,2.70
2022-08-12T19:18:14.010Z,2.80
2022-08-12T19:20:46.541Z,2.70
2022-08-12T19:23:21.462Z,2.60
2022-08-12T19:26:00.865Z,2.60
2022-08-12T19:28:34.430Z,3.17
2022-08-12T19:31:45.277Z,2.60
2022-08-12T19:37:18.163Z,2.80
2022-08-12T19:40:08.723Z,2.60
2022-08-12T19:42:44.700Z,2.43
2022-08-12T19:45:17.495Z,2.60
2022-08-12T19:47:46.842Z,2.60
2022-08-12T19:50:20.227Z,2.47
2022-08-12T19:52:51.025Z,2.77
2022-08-12T19:55:21.908Z,2.57
2022-08-12T19:58:01.708Z,2.87
2022-08-12T20:00:34.848Z,2.50
2022-08-12T20:03:05.492Z,3.20
2022-08-12T20:06:04.471Z,2.73
2022-08-12T20:08:34.027Z,2.73
2022-08-12T20:12:13.025Z,2.40
2022-08-12T20:14:01.252Z,2.70
2022-08-12T20:19:52.981Z,2.60
2022-08-12T20:22:23.350Z,2.97
2022-08-12T20:24:55.154Z,3.13
2022-08-12T20:28:02.656Z,2.77
2022-08-12T20:30:17.505Z,3.20
2022-08-12T20:32:56.085Z,2.87
2022-08-12T20:35:31.495Z,3.20
2022-08-12T20:38:26.507Z,3.40
2022-08-12T20:40:56.365Z,2.70
2022-08-12T20:43:28.156Z,2.93
2022-08-12T20:45:59.470Z,3.00
2022-08-12T20:48:29.489Z,3.03
2022-08-12T20:51:04.328Z,2.80
2022-08-12T20:53:57.777Z,3.10
2022-08-12T20:56:30.750Z,2.83
2022-08-12T20:59:03.192Z,3.37
2022-08-12T21:01:46.216Z,3.10
2022-08-12T21:04:35.175Z,3.10
2022-08-12T21:07:09.666Z,3.30
2022-08-12T21:09:41.971Z,3.50
2022-08-12T21:12:28.285Z,3.43
2022-08-12T21:15:23.892Z,3.27
2022-08-12T21:18:11.568Z,3.03
2022-08-12T21:20:53.283Z,3.67
2022-08-12T21:23:23.686Z,3.70
2022-08-12T21:26:01.139Z,3.40
2022-08-12T21:28:31.111Z,3.27
2022-08-12T21:31:30.158Z,3.07
2022-08-12T21:34:07.668Z,3.63
2022-08-12T21:36:40.295Z,3.73
2022-08-12T21:39:19.002Z,3.80
2022-08-12T21:41:52.116Z,3.60
2022-08-12T21:44:24.305Z,3.60
2022-08-12T21:47:20.762Z,3.30
2022-08-12T21:50:03.721Z,3.50
2022-08-12T21:52:37.355Z,3.43
2022-08-12T21:55:18.639Z,3.30
2022-08-12T21:57:53.122Z,3.73
2022-08-12T22:00:33.522Z,3.57
2022-08-12T22:03:54.971Z,3.50
2022-08-12T22:06:31.304Z,3.60
2022-08-12T22:09:16.412Z,3.33
2022-08-12T22:11:56.705Z,3.77
2022-08-12T22:14:29.209Z,3.43
2022-08-12T22:17:00.513Z,3.60
2022-08-12T22:19:33.554Z,3.60
2022-08-12T22:22:04.685Z,3.67
2022-08-12T22:24:34.052Z,4.00
2022-08-12T22:27:08.199Z,3.90
2022-08-12T22:30:05.058Z,3.40
2022-08-12T22:32:33.692Z,3.53
2022-08-12T22:35:22.086Z,3.90
2022-08-12T22:37:53.466Z,3.83
2022-08-12T22:40:24.110Z,3.93
2022-08-12T22:43:15.353Z,4.43
2022-08-12T22:46:01.677Z,4.20
2022-08-12T22:48:30.566Z,4.70
2022-08-12T22:51:00.407Z,4.77
2022-08-12T22:53:35.865Z,4.40
2022-08-12T22:56:07.127Z,4.77
2022-08-12T22:58:36.902Z,5.47
2022-08-12T23:01:21.192Z,4.50
2022-08-12T23:04:00.840Z,5.13
2022-08-12T23:06:32.730Z,5.00
2022-08-12T23:09:00.975Z,5.00
2022-08-12T23:11:33.893Z,5.43
2022-08-12T23:14:08.083Z,5.53
2022-08-12T23:16:41.146Z,5.60
2022-08-12T23:19:22.884Z,5.50
2022-08-12T23:22:05.205Z,5.97
2022-08-12T23:24:56.260Z,7.40
2022-08-12T23:27:50.428Z,7.10
2022-08-12T23:30:32.230Z,6.90
2022-08-12T23:33:13.589Z,7.50
2022-08-12T23:36:02.485Z,7.17
2022-08-12T23:38:34.754Z,6.70
2022-08-12T23:41:05.694Z,6.80
2022-08-12T23:43:39.547Z,6.77
2022-08-12T23:46:09.832Z,7.07
2022-08-12T23:48:38.565Z,7.67
2022-08-12T23:51:22.749Z,7.20
2022-08-12T23:53:56.353Z,7.27
2022-08-12T23:56:29.263Z,8.27
2022-08-12T23:58:58.690Z,8.80
